createdAt,value
2023-03-05T00:00:27.511Z,1012.04
2023-03-05T00:01:27.518Z,1012.01
2023-03-05T00:02:27.645Z,1011.96
2023-03-05T00:03:27.654Z,1011.99
2023-03-05T00:04:27.484Z,1011.99
2023-03-05T00:05:27.477Z,1011.96
2023-03-05T00:06:27.396Z,1011.95
2023-03-05T00:07:27.398Z,1011.92
2023-03-05T00:08:27.386Z,1011.90
2023-03-05T00:09:27.393Z,1011.91
2023-03-05T00:10:27.362Z,1011.91
2023-03-05T00:11:27.384Z,1011.91
2023-03-05T00:12:27.357Z,1011.86
2023-03-05T00:13:27.375Z,1011.84
2023-03-05T00:14:27.526Z,1011.86
2023-03-05T00:15:27.332Z,1011.83
2023-03-05T00:16:27.389Z,1011.88
2023-03-05T00:19:46.525Z,1011.86
2023-03-05T00:20:46.457Z,1011.84
2023-03-05T00:21:56.480Z,1011.81
2023-03-05T00:22:46.435Z,1011.82
2023-03-05T00:23:46.429Z,1011.74
2023-03-05T00:24:46.407Z,1011.79
2023-03-05T00:25:46.403Z,1011.78
2023-03-05T00:26:46.399Z,1011.82
2023-03-05T00:27:46.392Z,1011.77
2023-03-05T00:28:46.394Z,1011.79
2023-03-05T00:29:46.374Z,1011.75
2023-03-05T00:30:46.367Z,1011.75
2023-03-05T00:31:46.364Z,1011.70
2023-03-05T00:32:46.314Z,1011.70
2023-03-05T00:33:46.314Z,1011.73
2023-03-05T00:34:46.322Z,1011.69
2023-03-05T00:35:46.331Z,1011.63
2023-03-05T00:36:46.270Z,1011.64
2023-03-05T00:37:46.309Z,1011.64
2023-03-05T00:38:46.264Z,1011.64
2023-03-05T00:39:46.278Z,1011.66
2023-03-05T00:40:46.347Z,1011.69
2023-03-05T00:41:46.291Z,1011.66
2023-03-05T00:42:46.257Z,1011.62
2023-03-05T00:43:46.247Z,1011.64
2023-03-05T00:44:46.350Z,1011.60
2023-03-05T00:45:46.206Z,1011.54
2023-03-05T00:46:46.251Z,1011.61
2023-03-05T00:47:46.191Z,1011.64
2023-03-05T00:48:46.183Z,1011.65
2023-03-05T00:49:46.180Z,1011.50
2023-03-05T00:50:46.122Z,1011.50
2023-03-05T00:51:46.149Z,1011.47
2023-03-05T00:52:46.112Z,1011.43
2023-03-05T00:53:46.102Z,1011.45
2023-03-05T00:54:46.102Z,1011.42
2023-03-05T00:55:46.108Z,1011.47
2023-03-05T00:56:46.087Z,1011.41
2023-03-05T00:57:46.068Z,1011.40
2023-03-05T00:58:46.078Z,1011.43
2023-03-05T00:59:46.057Z,1011.36
2023-03-05T01:00:46.042Z,1011.38
2023-03-05T01:01:46.585Z,1011.40
2023-03-05T01:02:46.118Z,1011.42
2023-03-05T01:03:46.027Z,1011.39
2023-03-05T01:04:45.964Z,1011.40
2023-03-05T01:05:46.038Z,1011.40
2023-03-05T01:06:46.007Z,1011.39
2023-03-05T01:07:45.943Z,1011.36
2023-03-05T01:08:46.224Z,1011.34
2023-03-05T01:09:45.921Z,1011.36
2023-03-05T01:10:45.918Z,1011.32
2023-03-05T01:11:45.925Z,1011.27
2023-03-05T01:12:56.127Z,1011.25
2023-03-05T01:13:45.985Z,1011.22
2023-03-05T01:14:46.067Z,1011.19
2023-03-05T01:15:46.320Z,1011.18
2023-03-05T01:16:45.952Z,1011.16
2023-03-05T01:17:45.943Z,1011.06
2023-03-05T01:18:46.006Z,1011.06
2023-03-05T01:19:45.903Z,1011.10
2023-03-05T01:20:45.929Z,1011.06
2023-03-05T01:21:46.021Z,1011.03
2023-03-05T01:22:46.004Z,1010.96
2023-03-05T01:23:45.890Z,1011.03
2023-03-05T01:24:45.976Z,1011.01
2023-03-05T01:25:45.860Z,1011.00
2023-03-05T01:26:46.050Z,1010.98
2023-03-05T01:27:45.811Z,1010.97
2023-03-05T01:28:45.759Z,1010.98
2023-03-05T01:29:45.739Z,1010.95
2023-03-05T01:30:45.705Z,1010.92
2023-03-05T01:31:45.688Z,1010.97
2023-03-05T01:32:45.677Z,1010.95
2023-03-05T01:33:45.653Z,1010.93
2023-03-05T01:34:45.668Z,1010.91
2023-03-05T01:35:45.786Z,1010.90
2023-03-05T01:36:45.669Z,1010.88
2023-03-05T01:37:45.628Z,1010.86
2023-03-05T01:38:45.630Z,1010.86
2023-03-05T01:39:45.598Z,1010.88
2023-03-05T01:40:45.584Z,1010.83
2023-03-05T01:41:45.574Z,1010.85
2023-03-05T01:42:45.598Z,1010.82
2023-03-05T01:43:45.602Z,1010.77
2023-03-05T01:44:46.008Z,1010.77
2023-03-05T01:45:45.652Z,1010.75
2023-03-05T01:46:45.848Z,1010.76
2023-03-05T01:47:45.694Z,1010.74
2023-03-05T01:48:45.624Z,1010.67
2023-03-05T01:49:45.521Z,1010.68
2023-03-05T01:50:45.496Z,1010.68
2023-03-05T01:51:45.462Z,1010.78
2023-03-05T01:52:45.516Z,1010.66
2023-03-05T01:53:45.458Z,1010.66
2023-03-05T01:54:45.443Z,1010.68
2023-03-05T01:55:45.410Z,1010.70
2023-03-05T01:56:45.442Z,1010.65
2023-03-05T01:57:45.414Z,1010.64
2023-03-05T01:58:45.412Z,1010.64
2023-03-05T01:59:45.374Z,1010.60
2023-03-05T02:00:45.437Z,1010.68
2023-03-05T02:01:45.371Z,1010.64
2023-03-05T02:02:45.362Z,1010.62
2023-03-05T02:03:45.400Z,1010.62
2023-03-05T02:04:45.384Z,1010.60
2023-03-05T02:05:45.351Z,1010.65
2023-03-05T02:06:45.305Z,1010.62
2023-03-05T02:07:45.360Z,1010.62
2023-03-05T02:08:45.300Z,1010.62
2023-03-05T02:09:45.297Z,1010.64
2023-03-05T02:10:45.375Z,1010.63
2023-03-05T02:11:45.254Z,1010.59
2023-03-05T02:12:45.339Z,1010.63
2023-03-05T02:13:45.329Z,1010.55
2023-03-05T02:14:45.350Z,1010.58
2023-03-05T02:15:45.200Z,1010.55
2023-03-05T02:16:45.509Z,1010.51
2023-03-05T02:17:45.472Z,1010.54
2023-03-05T02:18:45.219Z,1010.50
2023-03-05T02:19:45.407Z,1010.42
2023-03-05T02:20:45.621Z,1010.43
2023-03-05T02:21:45.197Z,1010.40
2023-03-05T02:22:45.451Z,1010.37
2023-03-05T02:23:45.152Z,1010.39
2023-03-05T02:24:45.176Z,1010.34
2023-03-05T02:25:45.272Z,1010.41
2023-03-05T02:26:45.132Z,1010.35
2023-03-05T02:27:45.099Z,1010.41
2023-03-05T02:28:45.108Z,1010.35
2023-03-05T02:29:45.081Z,1010.29
2023-03-05T02:30:45.084Z,1010.29
2023-03-05T02:31:45.112Z,1010.31
2023-03-05T02:32:45.126Z,1010.33
2023-03-05T02:33:45.030Z,1010.28
2023-03-05T02:34:45.074Z,1010.28
2023-03-05T02:35:45.021Z,1010.23
2023-03-05T02:36:45.055Z,1010.22
2023-03-05T02:37:45.038Z,1010.23
2023-03-05T02:38:44.988Z,1010.19
2023-03-05T02:39:44.975Z,1010.20
2023-03-05T02:40:45.018Z,1010.15
2023-03-05T02:41:44.954Z,1010.19
2023-03-05T02:42:44.954Z,1010.14
2023-03-05T02:43:44.920Z,1010.15
2023-03-05T02:44:44.934Z,1010.11
2023-03-05T02:45:45.750Z,1010.17
2023-03-05T02:46:46.056Z,1010.15
2023-03-05T02:47:45.201Z,1010.14
2023-03-05T02:48:44.940Z,1010.13
2023-03-05T02:49:45.069Z,1010.14
2023-03-05T02:50:44.938Z,1010.12
2023-03-05T02:51:45.172Z,1010.13
2023-03-05T02:52:45.612Z,1010.09
2023-03-05T02:53:44.827Z,1010.10
2023-03-05T02:54:44.813Z,1010.06
2023-03-05T02:55:44.808Z,1010.08
2023-03-05T02:56:44.807Z,1010.04
2023-03-05T02:57:44.775Z,1010.02
2023-03-05T02:58:44.816Z,1010.01
2023-03-05T02:59:44.787Z,1010.00
2023-03-05T03:00:45.566Z,1010.02
2023-03-05T03:01:44.751Z,1009.90
2023-03-05T03:02:45.044Z,1010.01
2023-03-05T03:03:44.725Z,1009.89
2023-03-05T03:04:44.736Z,1009.92
2023-03-05T03:05:44.696Z,1009.88
2023-03-05T03:06:44.704Z,1009.85
2023-03-05T03:07:44.676Z,1009.88
2023-03-05T03:08:44.670Z,1009.84
2023-03-05T03:09:44.672Z,1009.80
2023-03-05T03:10:44.652Z,1009.76
2023-03-05T03:11:44.670Z,1009.80
2023-03-05T03:12:44.634Z,1009.76
2023-03-05T03:13:44.616Z,1009.80
2023-03-05T03:14:44.603Z,1009.80
2023-03-05T03:15:44.626Z,1009.69
2023-03-05T03:16:44.614Z,1009.74
2023-03-05T03:17:44.586Z,1009.75
2023-03-05T03:18:44.591Z,1009.74
2023-03-05T03:19:44.807Z,1009.73
2023-03-05T03:20:44.575Z,1009.71
2023-03-05T03:21:44.570Z,1009.77
2023-03-05T03:22:44.515Z,1009.70
2023-03-05T03:23:44.514Z,1009.66
2023-03-05T03:24:44.505Z,1009.70
2023-03-05T03:25:44.496Z,1009.70
2023-03-05T03:26:44.480Z,1009.61
2023-03-05T03:27:44.449Z,1009.62
2023-03-05T03:28:44.468Z,1009.62
2023-03-05T03:29:44.480Z,1009.66
2023-03-05T03:30:44.599Z,1009.64
2023-03-05T03:31:44.432Z,1009.63
2023-03-05T03:32:48.394Z,1009.63
2023-03-05T03:33:44.431Z,1009.64
2023-03-05T03:34:44.459Z,1009.63
2023-03-05T03:35:44.422Z,1009.58
2023-03-05T03:36:44.691Z,1009.59
2023-03-05T03:37:44.409Z,1009.58
2023-03-05T03:38:44.418Z,1009.58
2023-03-05T03:39:44.378Z,1009.64
2023-03-05T03:40:44.341Z,1009.65
2023-03-05T03:41:44.351Z,1009.56
2023-03-05T03:42:44.319Z,1009.57
2023-03-05T03:43:44.296Z,1009.58
2023-03-05T03:44:44.307Z,1009.57
2023-03-05T03:45:44.268Z,1009.56
2023-03-05T03:46:44.333Z,1009.55
2023-03-05T03:47:44.267Z,1009.54
2023-03-05T03:48:44.284Z,1009.56
2023-03-05T03:49:44.296Z,1009.51
2023-03-05T03:50:44.323Z,1009.45
2023-03-05T03:51:44.234Z,1009.50
2023-03-05T03:52:44.220Z,1009.50
2023-03-05T03:53:44.221Z,1009.45
2023-03-05T03:54:44.267Z,1009.45
2023-03-05T03:55:44.187Z,1009.39
2023-03-05T03:56:44.213Z,1009.40
2023-03-05T03:57:44.204Z,1009.39
2023-03-05T03:58:44.350Z,1009.38
2023-03-05T03:59:44.267Z,1009.40
2023-03-05T04:00:44.128Z,1009.36
2023-03-05T04:01:44.266Z,1009.32
2023-03-05T04:02:44.266Z,1009.30
2023-03-05T04:03:44.089Z,1009.32
2023-03-05T04:04:44.142Z,1009.33
2023-03-05T04:05:44.050Z,1009.31
2023-03-05T04:06:44.252Z,1009.29
2023-03-05T04:07:44.055Z,1009.27
2023-03-05T04:08:44.059Z,1009.25
2023-03-05T04:09:44.010Z,1009.25
2023-03-05T04:10:44.043Z,1009.19
2023-03-05T04:11:44.091Z,1009.24
2023-03-05T04:12:44.024Z,1009.22
2023-03-05T04:13:44.001Z,1009.16
2023-03-05T04:14:44.033Z,1009.19
2023-03-05T04:15:43.966Z,1009.20
2023-03-05T04:16:43.963Z,1009.15
2023-03-05T04:17:43.954Z,1009.15
2023-03-05T04:18:43.967Z,1009.11
2023-03-05T04:19:43.912Z,1009.14
2023-03-05T04:20:43.928Z,1009.08
2023-03-05T04:21:43.934Z,1009.07
2023-03-05T04:22:43.902Z,1009.08
2023-03-05T04:23:44.307Z,1009.11
2023-03-05T04:24:43.939Z,1009.06
2023-03-05T04:25:53.941Z,1009.08
2023-03-05T04:26:43.859Z,1009.07
2023-03-05T04:27:44.628Z,1009.09
2023-03-05T04:28:45.522Z,1009.02
2023-03-05T04:29:43.883Z,1009.13
2023-03-05T04:30:43.869Z,1009.08
2023-03-05T04:31:43.790Z,1009.01
2023-03-05T04:32:43.801Z,1009.04
2023-03-05T04:33:43.794Z,1009.05
2023-03-05T04:35:51.684Z,1008.98
2023-03-05T04:36:50.152Z,1008.98
2023-03-05T04:37:49.948Z,1008.98
2023-03-05T04:38:49.947Z,1008.91
2023-03-05T04:39:49.935Z,1008.86
2023-03-05T04:40:49.879Z,1008.95
2023-03-05T04:41:49.908Z,1008.90
2023-03-05T04:42:49.895Z,1008.85
2023-03-05T04:43:49.864Z,1008.92
2023-03-05T04:44:49.878Z,1008.89
2023-03-05T04:45:49.862Z,1008.88
2023-03-05T04:46:49.944Z,1008.86
2023-03-05T04:47:49.829Z,1008.85
2023-03-05T04:48:49.819Z,1008.93
2023-03-05T04:49:49.805Z,1008.85
2023-03-05T04:50:49.773Z,1008.84
2023-03-05T04:51:49.833Z,1008.85
2023-03-05T04:52:49.817Z,1008.85
2023-03-05T04:53:49.741Z,1008.85
2023-03-05T04:54:49.818Z,1008.83
2023-03-05T04:55:49.782Z,1008.84
2023-03-05T04:56:49.733Z,1008.83
2023-03-05T04:57:49.709Z,1008.86
2023-03-05T04:58:49.738Z,1008.87
2023-03-05T04:59:49.699Z,1008.87
2023-03-05T05:00:49.705Z,1008.82
2023-03-05T05:01:49.706Z,1008.80
2023-03-05T05:02:49.742Z,1008.78
2023-03-05T05:03:49.669Z,1008.81
2023-03-05T05:04:49.674Z,1008.79
2023-03-05T05:05:49.664Z,1008.80
2023-03-05T05:06:49.663Z,1008.80
2023-03-05T05:07:49.597Z,1008.75
2023-03-05T05:08:49.604Z,1008.83
2023-03-05T05:09:49.611Z,1008.79
2023-03-05T05:10:49.584Z,1008.79
2023-03-05T05:11:49.573Z,1008.81
2023-03-05T05:12:49.597Z,1008.80
2023-03-05T05:13:49.533Z,1008.75
2023-03-05T05:14:49.581Z,1008.80
2023-03-05T05:15:49.589Z,1008.81
2023-03-05T05:16:49.505Z,1008.79
2023-03-05T05:17:49.490Z,1008.77
2023-03-05T05:18:49.504Z,1008.76
2023-03-05T05:19:49.477Z,1008.78
2023-03-05T05:20:49.481Z,1008.70
2023-03-05T05:21:49.465Z,1008.74
2023-03-05T05:22:49.604Z,1008.77
2023-03-05T05:23:49.436Z,1008.78
2023-03-05T05:24:49.459Z,1008.78
2023-03-05T05:25:49.472Z,1008.73
2023-03-05T05:26:49.413Z,1008.74
2023-03-05T05:27:49.381Z,1008.71
2023-03-05T05:28:49.498Z,1008.76
2023-03-05T05:29:49.404Z,1008.69
2023-03-05T05:30:49.349Z,1008.71
2023-03-05T05:31:49.643Z,1008.69
2023-03-05T05:32:49.363Z,1008.76
2023-03-05T05:33:49.984Z,1008.63
2023-03-05T05:34:49.344Z,1008.68
2023-03-05T05:35:49.344Z,1008.70
2023-03-05T05:36:50.017Z,1008.67
2023-03-05T05:37:49.307Z,1008.70
2023-03-05T05:38:49.310Z,1008.69
2023-03-05T05:39:49.370Z,1008.67
2023-03-05T05:40:49.284Z,1008.70
2023-03-05T05:41:49.260Z,1008.69
2023-03-05T05:42:49.251Z,1008.65
2023-03-05T05:43:49.247Z,1008.65
2023-03-05T05:44:49.318Z,1008.74
2023-03-05T05:46:59.701Z,1008.73
2023-03-05T05:47:59.335Z,1008.77
2023-03-05T05:49:00.173Z,1008.68
2023-03-05T05:49:59.478Z,1008.68
2023-03-05T05:50:59.339Z,1008.64
2023-03-05T05:51:59.400Z,1008.69
2023-03-05T05:53:00.043Z,1008.64
2023-03-05T05:53:59.304Z,1008.70
2023-03-05T05:54:59.304Z,1008.68
2023-03-05T05:55:59.273Z,1008.69
2023-03-05T05:56:59.252Z,1008.68
2023-03-05T05:57:59.458Z,1008.72
2023-03-05T05:58:59.239Z,1008.66
2023-03-05T05:59:59.274Z,1008.70
2023-03-05T06:00:59.223Z,1008.66
2023-03-05T06:01:59.567Z,1008.71
2023-03-05T06:02:59.241Z,1008.67
2023-03-05T06:03:59.199Z,1008.68
2023-03-05T06:04:59.160Z,1008.71
2023-03-05T06:06:00.008Z,1008.72
2023-03-05T06:06:59.154Z,1008.67
2023-03-05T06:07:59.122Z,1008.67
2023-03-05T06:08:59.501Z,1008.77
2023-03-05T06:09:59.501Z,1008.66
2023-03-05T06:10:59.131Z,1008.62
2023-03-05T06:11:59.582Z,1008.63
2023-03-05T06:12:59.186Z,1008.61
2023-03-05T06:13:59.057Z,1008.56
2023-03-05T06:14:59.228Z,1008.66
2023-03-05T06:15:59.224Z,1008.74
2023-03-05T06:16:59.054Z,1008.63
2023-03-05T06:17:59.032Z,1008.57
2023-03-05T06:18:59.430Z,1008.62
2023-03-05T06:19:58.997Z,1008.58
2023-03-05T06:20:59.503Z,1008.58
2023-03-05T06:21:58.976Z,1008.63
2023-03-05T06:22:59.014Z,1008.55
2023-03-05T06:23:59.281Z,1008.59
2023-03-05T06:24:58.953Z,1008.58
2023-03-05T06:25:58.940Z,1008.55
2023-03-05T06:26:58.955Z,1008.59
2023-03-05T06:27:59.621Z,1008.57
2023-03-05T06:28:59.229Z,1008.54
2023-03-05T06:29:59.227Z,1008.56
2023-03-05T06:30:59.353Z,1008.61
2023-03-05T06:31:59.406Z,1008.68
2023-03-05T06:32:58.887Z,1008.59
2023-03-05T06:33:58.920Z,1008.56
2023-03-05T06:34:58.868Z,1008.58
2023-03-05T06:35:59.035Z,1008.54
2023-03-05T06:36:58.927Z,1008.60
2023-03-05T06:37:58.980Z,1008.62
2023-03-05T06:38:58.822Z,1008.57
2023-03-05T06:39:58.859Z,1008.69
2023-03-05T06:40:59.195Z,1008.53
2023-03-05T06:41:58.823Z,1008.58
2023-03-05T06:42:59.726Z,1008.55
2023-03-05T06:43:58.826Z,1008.54
2023-03-05T06:44:59.033Z,1008.66
2023-03-05T06:45:59.244Z,1008.59
2023-03-05T06:46:58.787Z,1008.53
2023-03-05T06:47:58.710Z,1008.52
2023-03-05T06:48:58.699Z,1008.61
2023-03-05T06:49:58.693Z,1008.58
2023-03-05T06:50:59.216Z,1008.59
2023-03-05T06:51:58.661Z,1008.60
2023-03-05T06:52:59.052Z,1008.55
2023-03-05T06:53:58.631Z,1008.55
2023-03-05T06:54:58.669Z,1008.55
2023-03-05T06:55:58.622Z,1008.53
2023-03-05T06:56:58.727Z,1008.60
2023-03-05T06:57:58.595Z,1008.55
2023-03-05T06:58:59.099Z,1008.49
2023-03-05T06:59:59.135Z,1008.52
2023-03-05T07:00:58.851Z,1008.55
2023-03-05T07:01:58.674Z,1008.56
2023-03-05T07:02:58.570Z,1008.55
2023-03-05T07:03:58.532Z,1008.60
2023-03-05T07:04:58.535Z,1008.55
2023-03-05T07:05:58.821Z,1008.44
2023-03-05T07:06:58.526Z,1008.42
2023-03-05T07:07:58.930Z,1008.43
2023-03-05T07:08:58.645Z,1008.44
2023-03-05T07:09:58.486Z,1008.43
2023-03-05T07:10:58.718Z,1008.52
2023-03-05T07:11:58.763Z,1008.47
2023-03-05T07:12:58.452Z,1008.45
2023-03-05T07:13:58.448Z,1008.43
2023-03-05T07:14:58.448Z,1008.48
2023-03-05T07:15:58.502Z,1008.33
2023-03-05T07:16:58.422Z,1008.34
2023-03-05T07:17:58.470Z,1008.33
2023-03-05T07:18:58.378Z,1008.36
2023-03-05T07:19:58.752Z,1008.34
2023-03-05T07:20:58.575Z,1008.36
2023-03-05T07:21:58.342Z,1008.40
2023-03-05T07:22:58.369Z,1008.47
2023-03-05T07:23:58.310Z,1008.37
2023-03-05T07:24:58.322Z,1008.41
2023-03-05T07:25:58.360Z,1008.39
2023-03-05T07:26:58.972Z,1008.36
2023-03-05T07:27:58.914Z,1008.37
2023-03-05T07:28:58.296Z,1008.37
2023-03-05T07:29:58.280Z,1008.33
2023-03-05T07:30:58.939Z,1008.35
2023-03-05T07:31:58.837Z,1008.45
2023-03-05T07:32:58.242Z,1008.40
2023-03-05T07:33:58.349Z,1008.44
2023-03-05T07:34:58.459Z,1008.36
2023-03-05T07:35:58.210Z,1008.37
2023-03-05T07:36:58.207Z,1008.30
2023-03-05T07:37:58.164Z,1008.43
2023-03-05T07:38:58.173Z,1008.34
2023-03-05T07:39:58.766Z,1008.31
2023-03-05T07:40:58.150Z,1008.33
2023-03-05T07:41:58.119Z,1008.31
2023-03-05T07:42:58.133Z,1008.26
2023-03-05T07:43:58.113Z,1008.35
2023-03-05T07:44:58.117Z,1008.33
2023-03-05T07:45:58.149Z,1008.34
2023-03-05T07:46:58.096Z,1008.31
2023-03-05T07:47:58.812Z,1008.33
2023-03-05T07:48:58.362Z,1008.31
2023-03-05T07:49:58.035Z,1008.34
2023-03-05T07:50:58.075Z,1008.36
2023-03-05T07:51:58.098Z,1008.30
2023-03-05T07:52:58.095Z,1008.27
2023-03-05T07:53:58.019Z,1008.29
2023-03-05T07:54:57.999Z,1008.25
2023-03-05T07:55:58.262Z,1008.24
2023-03-05T07:56:58.306Z,1008.29
2023-03-05T07:57:57.956Z,1008.28
2023-03-05T07:58:58.051Z,1008.22
2023-03-05T07:59:57.944Z,1008.20
2023-03-05T08:00:57.946Z,1008.22
2023-03-05T08:01:58.091Z,1008.23
2023-03-05T08:02:57.911Z,1008.18
2023-03-05T08:03:57.942Z,1008.14
2023-03-05T08:04:57.890Z,1008.13
2023-03-05T08:05:58.291Z,1008.09
2023-03-05T08:06:57.896Z,1008.13
2023-03-05T08:07:58.671Z,1008.11
2023-03-05T08:08:57.873Z,1008.13
2023-03-05T08:09:57.822Z,1008.10
2023-03-05T08:10:57.827Z,1008.09
2023-03-05T08:11:57.794Z,1008.03
2023-03-05T08:12:57.830Z,1008.03
2023-03-05T08:13:58.038Z,1008.06
2023-03-05T08:14:57.798Z,1008.09
2023-03-05T08:15:57.930Z,1008.06
2023-03-05T08:16:57.778Z,1008.11
2023-03-05T08:17:57.885Z,1008.01
2023-03-05T08:18:58.607Z,1008.02
2023-03-05T08:19:57.971Z,1008.14
2023-03-05T08:20:57.744Z,1008.08
2023-03-05T08:21:57.693Z,1008.09
2023-03-05T08:22:57.672Z,1008.03
2023-03-05T08:23:58.175Z,1007.98
2023-03-05T08:24:57.990Z,1008.01
2023-03-05T08:25:57.650Z,1008.06
2023-03-05T08:26:57.849Z,1008.09
2023-03-05T08:27:57.652Z,1008.09
2023-03-05T08:28:57.622Z,1008.06
2023-03-05T08:29:57.633Z,1008.05
2023-03-05T08:30:57.743Z,1007.93
2023-03-05T08:31:57.676Z,1007.98
2023-03-05T08:32:57.662Z,1007.99
2023-03-05T08:33:57.894Z,1007.99
2023-03-05T08:34:57.569Z,1007.97
2023-03-05T08:35:57.641Z,1007.95
2023-03-05T08:36:57.570Z,1007.96
2023-03-05T08:37:57.790Z,1007.86
2023-03-05T08:38:57.836Z,1007.89
2023-03-05T08:39:58.137Z,1007.93
2023-03-05T08:40:57.534Z,1007.94
2023-03-05T08:41:57.487Z,1007.88
2023-03-05T08:42:57.466Z,1007.87
2023-03-05T08:43:57.479Z,1007.82
2023-03-05T08:44:57.464Z,1007.86
2023-03-05T08:45:57.457Z,1007.83
2023-03-05T08:46:57.481Z,1007.81
2023-03-05T08:47:57.427Z,1007.84
2023-03-05T08:48:57.424Z,1007.74
2023-03-05T08:49:57.417Z,1007.82
2023-03-05T08:50:57.459Z,1007.81
2023-03-05T08:51:57.397Z,1007.85
2023-03-05T08:52:57.413Z,1007.84
2023-03-05T08:53:57.371Z,1007.76
2023-03-05T08:54:57.368Z,1007.80
2023-03-05T08:55:57.350Z,1007.78
2023-03-05T08:56:57.336Z,1007.74
2023-03-05T08:57:57.474Z,1007.76
2023-03-05T08:58:57.297Z,1007.74
2023-03-05T08:59:57.327Z,1007.72
2023-03-05T09:00:57.276Z,1007.75
2023-03-05T09:01:57.309Z,1007.75
2023-03-05T09:02:58.000Z,1007.70
2023-03-05T09:03:57.325Z,1007.71
2023-03-05T09:04:57.475Z,1007.73
2023-03-05T09:05:57.255Z,1007.71
2023-03-05T09:06:57.286Z,1007.76
2023-03-05T09:07:57.255Z,1007.74
2023-03-05T09:08:57.364Z,1007.70
2023-03-05T09:09:57.412Z,1007.59
2023-03-05T09:10:57.177Z,1007.64
2023-03-05T09:11:57.216Z,1007.70
2023-03-05T09:12:57.475Z,1007.73
2023-03-05T09:13:57.160Z,1007.65
2023-03-05T09:14:57.133Z,1007.66
2023-03-05T09:15:57.514Z,1007.65
2023-03-05T09:16:57.114Z,1007.68
2023-03-05T09:17:57.468Z,1007.69
2023-03-05T09:18:57.064Z,1007.62
2023-03-05T09:19:57.088Z,1007.64
2023-03-05T09:20:57.300Z,1007.74
2023-03-05T09:21:57.249Z,1007.56
2023-03-05T09:22:57.037Z,1007.62
2023-03-05T09:23:57.463Z,1007.55
2023-03-05T09:24:57.015Z,1007.59
2023-03-05T09:25:57.034Z,1007.63
2023-03-05T09:26:57.002Z,1007.61
2023-03-05T09:27:57.004Z,1007.72
2023-03-05T09:28:57.220Z,1007.57
2023-03-05T09:29:56.987Z,1007.49
2023-03-05T09:30:57.212Z,1007.53
2023-03-05T09:31:57.030Z,1007.51
2023-03-05T09:32:57.459Z,1007.59
2023-03-05T09:33:56.943Z,1007.54
2023-03-05T09:34:56.913Z,1007.55
2023-03-05T09:35:56.986Z,1007.54
2023-03-05T09:36:57.166Z,1007.49
2023-03-05T09:37:56.996Z,1007.59
2023-03-05T09:38:56.883Z,1007.52
2023-03-05T09:39:56.859Z,1007.51
2023-03-05T09:40:56.942Z,1007.55
2023-03-05T09:41:56.848Z,1007.52
2023-03-05T09:42:57.059Z,1007.54
2023-03-05T09:43:56.855Z,1007.63
2023-03-05T09:44:56.810Z,1007.53
2023-03-05T09:45:56.899Z,1007.53
2023-03-05T09:46:56.821Z,1007.45
2023-03-05T09:47:56.796Z,1007.51
2023-03-05T09:48:56.772Z,1007.43
2023-03-05T09:49:56.814Z,1007.41
2023-03-05T09:50:56.767Z,1007.51
2023-03-05T09:51:56.780Z,1007.43
2023-03-05T09:52:56.737Z,1007.43
2023-03-05T09:53:56.824Z,1007.44
2023-03-05T09:54:56.715Z,1007.41
2023-03-05T09:55:56.703Z,1007.42
2023-03-05T09:56:57.275Z,1007.42
2023-03-05T09:57:56.930Z,1007.38
2023-03-05T09:58:56.662Z,1007.32
2023-03-05T09:59:56.772Z,1007.34
2023-03-05T10:00:56.642Z,1007.32
2023-03-05T10:01:56.659Z,1007.32
2023-03-05T10:02:56.779Z,1007.30
2023-03-05T10:03:56.674Z,1007.35
2023-03-05T10:04:56.898Z,1007.34
2023-03-05T10:05:56.969Z,1007.31
2023-03-05T10:06:56.568Z,1007.30
2023-03-05T10:07:56.568Z,1007.32
2023-03-05T10:08:56.565Z,1007.24
2023-03-05T10:09:56.555Z,1007.27
2023-03-05T10:10:56.516Z,1007.15
2023-03-05T10:11:56.985Z,1007.16
2023-03-05T10:12:56.509Z,1007.21
2023-03-05T10:13:56.509Z,1007.16
2023-03-05T10:14:56.564Z,1007.22
2023-03-05T10:15:56.516Z,1007.14
2023-03-05T10:16:56.839Z,1007.17
2023-03-05T10:17:56.874Z,1007.13
2023-03-05T10:18:56.429Z,1007.11
2023-03-05T10:19:56.440Z,1007.12
2023-03-05T10:20:56.443Z,1007.13
2023-03-05T10:21:56.456Z,1007.15
2023-03-05T10:22:56.393Z,1007.17
2023-03-05T10:23:56.408Z,1007.11
2023-03-05T10:24:56.479Z,1007.14
2023-03-05T10:25:56.516Z,1007.07
2023-03-05T10:26:56.410Z,1007.11
2023-03-05T10:27:56.550Z,1007.13
2023-03-05T10:28:56.338Z,1007.02
2023-03-05T10:29:56.346Z,1006.97
2023-03-05T10:30:56.525Z,1006.98
2023-03-05T10:31:56.812Z,1007.02
2023-03-05T10:32:56.288Z,1007.06
2023-03-05T10:33:56.326Z,1007.02
2023-03-05T10:34:56.279Z,1007.01
2023-03-05T10:35:56.687Z,1007.01
2023-03-05T10:36:58.222Z,1007.12
2023-03-05T10:37:56.264Z,1006.99
2023-03-05T10:38:56.217Z,1006.94
2023-03-05T10:39:56.439Z,1007.00
2023-03-05T10:40:56.221Z,1007.02
2023-03-05T10:41:56.195Z,1006.99
2023-03-05T10:42:56.586Z,1006.93
2023-03-05T10:43:56.878Z,1006.98
2023-03-05T10:44:56.139Z,1006.94
2023-03-05T10:45:56.182Z,1006.97
2023-03-05T10:46:56.131Z,1006.93
2023-03-05T10:47:56.130Z,1006.92
2023-03-05T10:48:56.533Z,1006.87
2023-03-05T10:49:56.138Z,1006.88
2023-03-05T10:50:56.103Z,1006.92
2023-03-05T10:51:56.083Z,1006.88
2023-03-05T10:52:56.052Z,1006.86
2023-03-05T10:53:56.059Z,1006.86
2023-03-05T10:54:56.062Z,1006.89
2023-03-05T10:55:56.058Z,1006.85
2023-03-05T10:56:56.019Z,1006.84
2023-03-05T10:57:56.036Z,1006.82
2023-03-05T10:58:56.037Z,1006.86
2023-03-05T10:59:56.021Z,1006.74
2023-03-05T11:00:56.004Z,1006.74
2023-03-05T11:01:56.221Z,1006.75
2023-03-05T11:02:55.965Z,1006.73
2023-03-05T11:03:55.943Z,1006.77
2023-03-05T11:04:56.064Z,1006.73
2023-03-05T11:05:55.942Z,1006.61
2023-03-05T11:06:55.895Z,1006.63
2023-03-05T11:07:55.932Z,1006.60
2023-03-05T11:08:55.899Z,1006.58
2023-03-05T11:09:56.636Z,1006.52
2023-03-05T11:10:55.883Z,1006.51
2023-03-05T11:11:55.882Z,1006.45
2023-03-05T11:12:55.829Z,1006.39
2023-03-05T11:13:55.846Z,1006.49
2023-03-05T11:14:55.840Z,1006.49
2023-03-05T11:15:55.891Z,1006.48
2023-03-05T11:16:55.804Z,1006.47
2023-03-05T11:17:55.804Z,1006.42
2023-03-05T11:18:55.779Z,1006.43
2023-03-05T11:19:55.790Z,1006.42
2023-03-05T11:20:55.768Z,1006.44
2023-03-05T11:21:55.761Z,1006.46
2023-03-05T11:22:55.725Z,1006.45
2023-03-05T11:23:55.732Z,1006.38
2023-03-05T11:24:55.688Z,1006.40
2023-03-05T11:25:55.735Z,1006.37
2023-03-05T11:26:55.695Z,1006.34
2023-03-05T11:27:55.689Z,1006.37
2023-03-05T11:28:55.681Z,1006.37
2023-03-05T11:29:55.678Z,1006.42
2023-03-05T11:30:55.736Z,1006.36
2023-03-05T11:31:55.629Z,1006.35
2023-03-05T11:32:55.747Z,1006.34
2023-03-05T11:33:55.618Z,1006.25
2023-03-05T11:34:55.612Z,1006.18
2023-03-05T11:35:55.656Z,1006.14
2023-03-05T11:36:55.583Z,1006.19
2023-03-05T11:37:55.583Z,1006.08
2023-03-05T11:38:55.562Z,1006.02
2023-03-05T11:39:55.566Z,1006.10
2023-03-05T11:40:55.535Z,1006.04
2023-03-05T11:41:55.545Z,1005.99
2023-03-05T11:42:55.502Z,1005.92
2023-03-05T11:43:55.522Z,1005.97
2023-03-05T11:44:55.508Z,1005.92
2023-03-05T11:45:55.520Z,1005.71
2023-03-05T11:46:55.459Z,1005.83
2023-03-05T11:47:55.472Z,1005.88
2023-03-05T11:48:55.463Z,1005.80
2023-03-05T11:49:55.434Z,1005.88
2023-03-05T11:50:55.426Z,1005.90
2023-03-05T11:51:55.398Z,1005.90
2023-03-05T11:52:55.406Z,1005.91
2023-03-05T11:53:55.422Z,1005.84
2023-03-05T11:54:55.376Z,1005.87
2023-03-05T11:55:55.420Z,1005.85
2023-03-05T11:56:55.359Z,1005.86
2023-03-05T11:57:55.368Z,1005.92
2023-03-05T11:58:55.341Z,1005.84
2023-03-05T11:59:55.353Z,1005.86
2023-03-05T12:00:55.325Z,1005.85
2023-03-05T12:01:55.337Z,1005.82
2023-03-05T12:02:55.438Z,1005.86
2023-03-05T12:03:55.426Z,1005.76
2023-03-05T12:04:55.280Z,1005.71
2023-03-05T12:05:55.287Z,1005.66
2023-03-05T12:06:55.254Z,1005.52
2023-03-05T12:07:55.253Z,1005.57
2023-03-05T12:08:55.257Z,1005.65
2023-03-05T12:09:55.292Z,1005.61